Time;durP1;ratioP1;P1;durP2;ratioP2;P2;SDS_P1;SDS_P2;PMS_P1;PMS_P2;Temp;Humidity;BMP_temperature;BMP_pressure;BME280_temperature;BME280_humidity;BME280_pressure;Samples;Min_cycle;Max_cycle;Signal;HPM_P1;HPM_P2
2022/04/03 00:00:16;;;;;;;64.18;47.05;;;12.70;51.60;;;;;;4995219;28;98285;-38
2022/04/03 00:02:42;;;;;;;63.97;47.10;;;12.70;51.60;;;;;;4995946;28;94989;-45
2022/04/03 00:05:08;;;;;;;64.50;47.15;;;12.70;51.60;;;;;;5005014;28;95038;-41
2022/04/03 00:07:34;;;;;;;63.83;47.05;;;12.70;51.50;;;;;;4998543;28;95056;-42
2022/04/03 00:10:00;;;;;;;63.78;46.92;;;12.70;52.30;;;;;;5000184;27;97329;-38
2022/04/03 00:12:26;;;;;;;64.30;47.35;;;12.70;51.60;;;;;;5000333;28;95835;-39
2022/04/03 00:14:53;;;;;;;65.10;47.25;;;12.60;51.50;;;;;;4998061;28;94527;-37
2022/04/03 00:17:19;;;;;;;64.20;47.15;;;12.70;51.50;;;;;;4995227;28;97040;-42
2022/04/03 00:19:45;;;;;;;63.80;47.08;;;12.60;51.60;;;;;;4991777;28;94555;-38
2022/04/03 00:22:11;;;;;;;64.32;47.15;;;12.60;51.70;;;;;;5005390;28;95262;-43
2022/04/03 00:24:37;;;;;;;64.72;47.13;;;12.60;51.60;;;;;;4993703;28;94944;-40
2022/04/03 00:27:03;;;;;;;65.55;47.35;;;12.60;51.60;;;;;;5005657;27;94058;-39
2022/04/03 00:29:29;;;;;;;64.32;47.25;;;12.60;51.60;;;;;;4995910;28;95268;-40
2022/04/03 00:31:55;;;;;;;63.95;47.25;;;12.50;51.40;;;;;;4996529;28;95575;-37
2022/04/03 00:34:21;;;;;;;63.53;47.05;;;12.60;51.60;;;;;;4990538;28;96368;-37
2022/04/03 00:36:47;;;;;;;63.83;47.13;;;12.60;51.50;;;;;;5008286;27;94977;-39
2022/04/03 00:39:12;;;;;;;63.50;47.00;;;12.50;51.60;;;;;;5000307;28;95682;-39
2022/04/03 00:41:39;;;;;;;64.22;47.20;;;12.50;51.70;;;;;;4999651;28;94614;-35
2022/04/03 00:44:05;;;;;;;64.75;46.88;;;12.50;51.40;;;;;;4989659;28;94942;-35
2022/04/03 00:46:33;;;;;;;63.88;47.25;;;12.50;51.60;;;;;;4998437;28;94968;-37
2022/04/03 00:48:59;;;;;;;64.47;47.15;;;12.50;51.60;;;;;;4996386;28;95106;-49
2022/04/03 00:51:26;;;;;;;63.65;46.95;;;12.50;51.40;;;;;;4994591;28;94049;-40
2022/04/03 00:53:51;;;;;;;64.65;47.20;;;12.50;51.70;;;;;;4995840;28;94360;-47
2022/04/03 00:56:17;;;;;;;63.53;47.15;;;12.50;51.50;;;;;;4991470;28;94863;-37
2022/04/03 00:58:43;;;;;;;63.55;46.95;;;12.50;51.70;;;;;;5005334;28;96336;-41
2022/04/03 01:01:09;;;;;;;64.13;47.05;;;12.50;51.40;;;;;;4994509;28;96520;-38
2022/04/03 01:03:35;;;;;;;63.83;47.15;;;12.50;51.40;;;;;;4990667;28;95009;-38
2022/04/03 01:06:01;;;;;;;64.65;46.95;;;12.50;51.60;;;;;;4996000;28;94676;-39
2022/04/03 01:08:27;;;;;;;64.20;46.85;;;12.50;51.50;;;;;;4990494;28;96407;-40
2022/04/03 01:10:53;;;;;;;63.38;46.95;;;12.50;51.60;;;;;;4993059;28;94896;-35
2022/04/03 01:13:18;;;;;;;63.92;47.13;;;12.50;51.60;;;;;;4994955;28;94739;-38
2022/04/03 01:15:55;;;;;;;63.85;47.15;;;12.50;51.70;;;;;;4998994;28;94424;-36
2022/04/03 01:18:23;;;;;;;63.83;47.22;;;12.50;51.60;;;;;;4992913;28;94745;-40
2022/04/03 01:20:49;;;;;;;64.05;47.20;;;12.50;51.60;;;;;;4991890;28;95599;-38
2022/04/03 01:23:15;;;;;;;63.42;46.95;;;12.40;51.40;;;;;;4994121;28;96026;-38
2022/04/03 01:25:41;;;;;;;63.35;47.05;;;12.40;51.60;;;;;;4991600;28;94824;-38
2022/04/03 01:28:08;;;;;;;63.40;46.90;;;12.40;51.60;;;;;;4990522;28;95329;-35
2022/04/03 01:30:34;;;;;;;63.45;47.05;;;12.40;51.40;;;;;;4992531;28;95519;-35
2022/04/03 01:33:00;;;;;;;64.85;46.80;;;12.40;51.60;;;;;;4993967;28;94554;-40
2022/04/03 01:35:25;;;;;;;62.88;46.78;;;12.40;51.50;;;;;;4995122;28;94811;-36
2022/04/03 01:37:51;;;;;;;63.20;46.75;;;12.40;51.60;;;;;;4997631;28;95720;-41
2022/04/03 01:40:18;;;;;;;63.83;47.10;;;12.40;51.60;;;;;;4993172;28;94706;-40
2022/04/03 01:42:44;;;;;;;63.70;47.25;;;12.40;51.60;;;;;;4993641;28;96944;-41
2022/04/03 01:45:10;;;;;;;63.30;47.08;;;12.40;51.50;;;;;;4995195;28;95319;-36
2022/04/03 01:47:36;;;;;;;63.85;47.17;;;12.40;51.80;;;;;;4993527;28;99460;-38
2022/04/03 01:50:06;;;;;;;63.55;46.75;;;12.40;51.60;;;;;;4991233;28;95880;-40
2022/04/03 01:52:31;;;;;;;63.33;47.05;;;12.40;51.60;;;;;;4991936;28;94805;-39
2022/04/03 01:54:59;;;;;;;63.95;47.03;;;12.40;51.50;;;;;;4991944;28;94778;-41
2022/04/03 01:57:25;;;;;;;63.40;47.03;;;12.40;51.60;;;;;;4990124;28;97524;-37
2022/04/03 01:59:51;;;;;;;63.90;47.20;;;12.30;51.50;;;;;;4999229;28;94860;-39
2022/04/03 02:02:17;;;;;;;63.20;47.08;;;12.30;51.60;;;;;;4992643;28;94533;-39
2022/04/03 02:04:43;;;;;;;63.47;47.13;;;12.30;51.70;;;;;;4996448;28;94061;-36
2022/04/03 02:07:08;;;;;;;63.38;46.75;;;12.40;51.80;;;;;;4989013;28;94962;-38
2022/04/03 02:09:34;;;;;;;63.40;47.03;;;12.30;51.50;;;;;;4983493;28;94814;-36
2022/04/03 02:12:00;;;;;;;62.65;46.72;;;12.30;51.70;;;;;;4990842;28;96073;-38
2022/04/03 02:14:26;;;;;;;63.67;47.30;;;12.30;51.60;;;;;;4998614;28;94648;-36
2022/04/03 02:16:56;;;;;;;63.20;46.85;;;12.30;51.60;;;;;;4992447;28;94750;-41
2022/04/03 02:19:22;;;;;;;63.53;47.25;;;12.30;51.70;;;;;;4996789;28;95332;-39
2022/04/03 02:21:48;;;;;;;63.03;46.80;;;12.30;51.50;;;;;;4992626;28;95979;-38
2022/04/03 02:24:14;;;;;;;63.78;47.15;;;12.30;51.60;;;;;;4990977;28;95713;-37
2022/04/03 02:26:40;;;;;;;63.60;47.05;;;12.30;51.60;;;;;;4990830;28;95064;-35
2022/04/03 02:29:06;;;;;;;64.10;46.92;;;12.30;51.80;;;;;;4989059;28;97229;-38
2022/04/03 02:31:31;;;;;;;62.92;46.72;;;12.20;51.50;;;;;;4996730;28;94787;-40
2022/04/03 02:33:57;;;;;;;63.63;47.05;;;12.20;51.70;;;;;;4997095;28;94835;-39
2022/04/03 02:36:23;;;;;;;64.40;47.25;;;12.30;51.80;;;;;;4991413;28;95886;-36
2022/04/03 02:38:49;;;;;;;63.47;46.95;;;12.30;51.70;;;;;;4985118;28;95975;-39
2022/04/03 02:41:14;;;;;;;62.90;46.90;;;12.30;51.60;;;;;;4990441;28;94725;-36
2022/04/03 02:43:40;;;;;;;62.95;47.00;;;12.30;51.50;;;;;;4993964;28;94563;-37
2022/04/03 02:46:06;;;;;;;62.70;46.88;;;12.30;51.70;;;;;;4993798;28;94969;-37
2022/04/03 02:48:33;;;;;;;63.85;47.13;;;12.20;51.50;;;;;;4989268;28;95075;-37
2022/04/03 02:50:59;;;;;;;62.85;46.75;;;12.20;51.60;;;;;;4997169;28;94815;-41
2022/04/03 02:53:25;;;;;;;63.20;46.97;;;12.20;51.70;;;;;;4991675;28;93904;-39
2022/04/03 02:55:51;;;;;;;63.22;47.13;;;12.20;51.60;;;;;;4998125;28;94873;-38
2022/04/03 02:58:17;;;;;;;63.65;47.13;;;12.20;51.50;;;;;;5003034;28;95415;-39
2022/04/03 03:00:43;;;;;;;63.33;47.03;;;12.20;51.60;;;;;;4988340;27;96959;-37
2022/04/03 03:03:09;;;;;;;62.97;46.78;;;12.20;51.60;;;;;;4992334;28;95054;-39
2022/04/03 03:05:35;;;;;;;63.88;47.33;;;12.20;51.60;;;;;;4993807;28;95616;-38
2022/04/03 03:08:01;;;;;;;63.25;47.10;;;12.20;51.70;;;;;;4995855;28;95039;-39
2022/04/03 03:10:27;;;;;;;62.65;46.83;;;12.20;51.60;;;;;;4993168;28;94844;-36
2022/04/03 03:12:53;;;;;;;63.45;47.03;;;12.20;52.40;;;;;;4982692;28;95362;-34
2022/04/03 03:15:19;;;;;;;64.35;47.15;;;12.20;51.60;;;;;;4994057;28;94901;-39
2022/04/03 03:17:46;;;;;;;63.30;46.95;;;12.20;51.70;;;;;;5001095;28;97773;-39
2022/04/03 03:20:12;;;;;;;62.45;46.58;;;12.20;51.60;;;;;;4994640;28;94867;-40
2022/04/03 03:22:38;;;;;;;63.35;47.10;;;12.20;51.60;;;;;;4993988;28;96968;-37
2022/04/03 03:25:06;;;;;;;63.20;47.17;;;12.20;51.70;;;;;;4994750;28;96033;-37
2022/04/03 03:27:36;;;;;;;62.83;46.80;;;12.10;51.60;;;;;;4993020;28;96421;-37
2022/04/03 03:30:03;;;;;;;63.28;47.13;;;12.10;51.60;;;;;;4993016;28;94793;-38
2022/04/03 03:32:29;;;;;;;62.17;46.58;;;12.10;51.50;;;;;;4992053;28;94591;-35
2022/04/03 03:34:54;;;;;;;62.75;47.05;;;12.10;51.50;;;;;;4989854;28;95138;-38
2022/04/03 03:37:21;;;;;;;62.25;46.80;;;12.10;51.60;;;;;;4980230;28;95148;-36
2022/04/03 03:39:47;;;;;;;62.80;46.95;;;12.10;51.50;;;;;;4984169;28;94715;-36
2022/04/03 03:42:13;;;;;;;63.30;47.03;;;12.10;51.50;;;;;;4985173;28;93890;-38
2022/04/03 03:44:39;;;;;;;63.28;47.03;;;12.10;51.70;;;;;;4996870;28;95642;-39
2022/04/03 03:47:05;;;;;;;62.75;46.78;;;12.10;51.60;;;;;;4995084;28;94843;-40
2022/04/03 03:49:31;;;;;;;63.22;47.08;;;12.10;51.60;;;;;;4987033;28;98326;-37
2022/04/03 03:51:57;;;;;;;63.17;47.15;;;12.10;51.70;;;;;;4987472;28;94816;-38
2022/04/03 03:54:23;;;;;;;62.28;46.72;;;12.10;51.60;;;;;;4985353;28;95454;-43
2022/04/03 03:56:49;;;;;;;63.45;47.20;;;12.10;51.70;;;;;;4991093;28;94889;-47
2022/04/03 03:59:14;;;;;;;64.15;47.20;;;12.00;51.60;;;;;;4998266;28;97642;-39
2022/04/03 04:01:41;;;;;;;62.50;46.85;;;12.10;51.60;;;;;;4991162;28;95759;-37
2022/04/03 04:04:06;;;;;;;62.75;47.10;;;12.10;51.60;;;;;;4990583;28;94737;-37
2022/04/03 04:06:32;;;;;;;62.80;47.05;;;12.10;51.40;;;;;;4990228;28;94870;-39
2022/04/03 04:08:57;;;;;;;63.33;46.92;;;12.00;51.50;;;;;;4990669;28;94784;-36
2022/04/03 04:11:23;;;;;;;62.35;46.83;;;12.00;51.50;;;;;;4990229;28;95014;-39
2022/04/03 04:13:49;;;;;;;63.28;47.15;;;12.10;51.50;;;;;;4989414;28;96146;-36
2022/04/03 04:16:14;;;;;;;63.45;47.10;;;12.00;51.40;;;;;;4996048;28;96353;-37
2022/04/03 04:18:40;;;;;;;63.53;47.08;;;12.00;51.40;;;;;;4986698;28;94963;-40
2022/04/03 04:21:06;;;;;;;63.03;47.08;;;12.00;51.40;;;;;;4989154;28;94824;-38
2022/04/03 04:23:32;;;;;;;63.17;47.15;;;12.00;51.30;;;;;;4992819;28;94512;-39
2022/04/03 04:25:58;;;;;;;62.15;46.85;;;12.00;51.40;;;;;;4987738;28;95157;-39
2022/04/03 04:28:25;;;;;;;64.90;47.22;;;12.00;51.40;;;;;;4993807;28;95731;-39
2022/04/03 04:30:50;;;;;;;63.15;47.40;;;12.00;51.40;;;;;;4997162;28;94155;-43
2022/04/03 04:33:16;;;;;;;63.20;47.20;;;12.00;51.40;;;;;;4985448;28;95039;-37
2022/04/03 04:35:42;;;;;;;62.53;47.15;;;12.00;51.40;;;;;;4998613;28;95015;-39
2022/04/03 04:38:07;;;;;;;63.80;47.20;;;12.00;51.60;;;;;;4988553;28;95473;-37
2022/04/03 04:40:34;;;;;;;63.13;47.28;;;12.00;51.40;;;;;;4995766;28;94765;-40
2022/04/03 04:42:59;;;;;;;63.30;47.25;;;12.00;51.30;;;;;;4991806;28;94836;-39
2022/04/03 04:45:25;;;;;;;63.53;47.20;;;12.00;51.40;;;;;;4987212;28;97250;-39
2022/04/03 04:47:59;;;;;;;62.90;47.03;;;12.00;51.30;;;;;;4985846;28;95907;-38
2022/04/03 04:50:26;;;;;;;62.72;47.22;;;12.00;51.40;;;;;;4998782;28;94748;-37
2022/04/03 04:52:52;;;;;;;62.85;47.30;;;12.00;51.30;;;;;;4994282;28;95104;-38
2022/04/03 04:55:19;;;;;;;62.70;46.88;;;12.00;51.20;;;;;;4998304;28;94897;-40
2022/04/03 04:57:50;;;;;;;63.45;47.47;;;12.00;51.20;;;;;;5001388;28;95239;-36
2022/04/03 05:00:16;;;;;;;63.80;47.40;;;12.00;51.40;;;;;;4999236;28;95090;-37
2022/04/03 05:02:45;;;;;;;63.83;47.10;;;12.00;51.30;;;;;;4995304;28;96279;-38
2022/04/03 05:05:13;;;;;;;63.65;47.15;;;12.00;51.30;;;;;;4992736;28;95980;-39
2022/04/03 05:07:39;;;;;;;63.10;46.67;;;12.00;51.40;;;;;;4999129;28;94972;-39
2022/04/03 05:10:06;;;;;;;62.30;46.97;;;12.00;51.40;;;;;;4993672;28;96424;-35
2022/04/03 05:12:32;;;;;;;64.07;47.75;;;11.90;51.40;;;;;;4989319;28;94891;-41
2022/04/03 05:14:57;;;;;;;64.35;47.30;;;12.00;51.40;;;;;;4993393;28;94910;-38
2022/04/03 05:17:23;;;;;;;64.38;47.63;;;12.00;51.40;;;;;;4998896;28;96281;-46
2022/04/03 05:19:49;;;;;;;63.85;47.38;;;12.00;51.30;;;;;;4996746;28;94200;-40
2022/04/03 05:22:14;;;;;;;63.35;47.35;;;12.00;51.40;;;;;;4993762;28;95013;-35
2022/04/03 05:24:40;;;;;;;63.72;47.20;;;12.00;51.50;;;;;;4995134;28;95063;-36
2022/04/03 05:27:05;;;;;;;63.22;47.20;;;12.00;51.40;;;;;;4997890;28;95452;-38
2022/04/03 05:29:34;;;;;;;63.22;47.05;;;12.00;51.20;;;;;;4999007;28;95000;-39
2022/04/03 05:32:00;;;;;;;63.08;47.35;;;12.00;51.40;;;;;;4993481;28;95096;-37
2022/04/03 05:34:26;;;;;;;63.25;47.35;;;12.00;51.40;;;;;;4995307;28;94775;-38
2022/04/03 05:36:51;;;;;;;64.68;47.30;;;12.00;51.30;;;;;;4998591;28;94664;-40
2022/04/03 05:39:17;;;;;;;63.60;47.22;;;12.00;51.30;;;;;;4998687;28;94821;-44
2022/04/03 05:41:43;;;;;;;62.95;47.20;;;12.00;51.30;;;;;;4999961;28;95988;-39
2022/04/03 05:44:09;;;;;;;62.78;47.05;;;11.90;51.30;;;;;;4985974;28;94411;-37
2022/04/03 05:46:34;;;;;;;63.25;47.40;;;12.00;51.20;;;;;;4994407;28;94895;-35
2022/04/03 05:49:00;;;;;;;62.50;47.15;;;12.00;51.20;;;;;;4994888;28;94712;-38
2022/04/03 05:51:26;;;;;;;64.75;47.45;;;12.00;51.20;;;;;;4995744;28;96930;-38
2022/04/03 05:53:52;;;;;;;63.78;47.53;;;12.00;51.40;;;;;;5000267;28;95810;-41
2022/04/03 05:56:17;;;;;;;63.55;47.53;;;12.00;51.20;;;;;;4995180;28;94779;-38
2022/04/03 05:58:43;;;;;;;64.47;47.63;;;12.00;51.50;;;;;;4992530;28;94958;-37
2022/04/03 06:01:09;;;;;;;62.90;47.00;;;12.00;51.60;;;;;;4990785;28;94824;-46
2022/04/03 06:03:35;;;;;;;63.50;47.33;;;12.00;51.40;;;;;;4991105;28;95513;-35
2022/04/03 06:06:01;;;;;;;64.50;47.17;;;12.00;51.20;;;;;;4989914;28;95239;-43
2022/04/03 06:08:26;;;;;;;64.50;47.35;;;12.00;51.20;;;;;;4991907;28;94199;-38
2022/04/03 06:10:52;;;;;;;62.92;47.38;;;11.90;51.30;;;;;;4990822;28;94969;-37
2022/04/03 06:13:18;;;;;;;63.05;47.60;;;11.90;51.20;;;;;;4995860;28;94795;-41
2022/04/03 06:15:48;;;;;;;63.80;47.75;;;11.90;51.30;;;;;;4990399;28;95940;-39
2022/04/03 06:18:16;;;;;;;64.00;47.63;;;11.90;51.10;;;;;;4989969;28;94552;-38
2022/04/03 06:20:42;;;;;;;63.55;47.50;;;11.90;51.10;;;;;;4990363;28;95203;-37
2022/04/03 06:23:18;;;;;;;64.35;47.55;;;11.90;51.10;;;;;;4997404;28;94913;-38
2022/04/03 06:25:46;;;;;;;63.67;47.30;;;11.90;51.20;;;;;;4992388;28;94876;-38
2022/04/03 06:28:11;;;;;;;64.05;47.60;;;11.90;51.10;;;;;;4988639;28;94979;-51
2022/04/03 06:30:37;;;;;;;63.90;47.63;;;11.90;51.20;;;;;;4995176;28;96530;-39
2022/04/03 06:33:03;;;;;;;63.60;47.30;;;11.90;51.10;;;;;;4993595;28;94734;-39
2022/04/03 06:35:29;;;;;;;63.95;47.90;;;11.90;51.10;;;;;;4997416;28;94963;-39
2022/04/03 06:37:55;;;;;;;64.60;47.75;;;11.90;51.70;;;;;;4990353;28;95609;-40
2022/04/03 06:40:21;;;;;;;63.28;47.47;;;11.90;51.10;;;;;;4985821;28;96627;-38
2022/04/03 06:42:47;;;;;;;63.90;47.55;;;11.90;51.30;;;;;;4989900;28;94710;-35
2022/04/03 06:45:14;;;;;;;63.92;47.28;;;12.00;51.20;;;;;;5002963;27;94885;-44
2022/04/03 06:47:40;;;;;;;63.67;47.55;;;11.90;51.10;;;;;;4994829;28;95804;-35
2022/04/03 06:50:09;;;;;;;64.00;47.55;;;12.00;51.20;;;;;;4986115;28;95155;-39
2022/04/03 06:52:36;;;;;;;64.00;47.35;;;12.00;51.20;;;;;;4996580;28;95216;-38
2022/04/03 06:55:03;;;;;;;63.88;47.55;;;11.90;51.10;;;;;;4991811;28;94932;-36
2022/04/03 06:57:29;;;;;;;63.35;47.45;;;11.90;51.10;;;;;;4998609;28;94790;-40
2022/04/03 06:59:54;;;;;;;63.47;47.47;;;11.90;51.10;;;;;;4992876;28;95250;-35
2022/04/03 07:02:20;;;;;;;64.68;47.80;;;11.90;51.10;;;;;;4983164;28;95016;-39
2022/04/03 07:04:45;;;;;;;63.28;47.47;;;12.00;51.10;;;;;;4995512;28;95836;-39
2022/04/03 07:07:19;;;;;;;64.38;47.58;;;12.00;51.20;;;;;;4993545;28;95861;-38
2022/04/03 07:09:45;;;;;;;64.50;48.00;;;12.00;51.00;;;;;;4998307;28;95097;-37
2022/04/03 07:12:11;;;;;;;63.42;47.53;;;12.00;51.10;;;;;;4984365;28;94837;-39
2022/04/03 07:14:37;;;;;;;64.07;47.65;;;12.00;51.00;;;;;;4998411;28;94905;-38
2022/04/03 07:17:03;;;;;;;64.03;47.72;;;12.00;51.00;;;;;;4992378;28;94532;-38
2022/04/03 07:19:28;;;;;;;63.47;47.47;;;12.00;51.00;;;;;;4990573;27;94732;-40
2022/04/03 07:21:56;;;;;;;64.13;47.55;;;12.00;51.00;;;;;;4996318;28;94218;-39
2022/04/03 07:24:22;;;;;;;63.95;47.75;;;12.00;51.00;;;;;;4994233;27;94893;-37
2022/04/03 07:26:48;;;;;;;63.45;47.45;;;12.00;50.80;;;;;;5001195;28;94899;-37
2022/04/03 07:29:13;;;;;;;63.78;47.40;;;12.00;50.90;;;;;;5001121;28;96606;-40
2022/04/03 07:31:39;;;;;;;64.75;48.15;;;12.00;51.00;;;;;;4995101;28;95160;-39
2022/04/03 07:34:04;;;;;;;64.75;47.20;;;12.00;50.90;;;;;;4994105;28;95039;-38
2022/04/03 07:36:30;;;;;;;65.07;47.80;;;12.00;50.90;;;;;;4991881;28;94963;-39
2022/04/03 07:38:56;;;;;;;63.72;47.53;;;12.00;51.00;;;;;;4985274;28;94994;-39
2022/04/03 07:41:22;;;;;;;63.92;47.55;;;12.00;51.00;;;;;;4991338;28;95865;-38
2022/04/03 07:43:48;;;;;;;64.32;47.75;;;12.00;51.00;;;;;;4995602;28;94593;-41
2022/04/03 07:46:16;;;;;;;64.13;47.72;;;12.00;51.00;;;;;;4990675;27;94310;-36
2022/04/03 07:48:43;;;;;;;64.38;47.67;;;12.10;51.00;;;;;;4987540;28;95872;-38
2022/04/03 07:51:08;;;;;;;64.03;47.55;;;12.10;50.70;;;;;;4987512;28;94462;-37
2022/04/03 07:53:34;;;;;;;65.32;47.70;;;12.10;50.70;;;;;;4989940;28;95682;-38
2022/04/03 07:56:00;;;;;;;64.03;47.30;;;12.10;50.80;;;;;;4992941;28;96557;-38
2022/04/03 07:58:25;;;;;;;64.13;47.38;;;12.10;50.70;;;;;;4993057;28;95966;-38
2022/04/03 08:00:51;;;;;;;64.72;47.67;;;12.10;50.80;;;;;;4986822;28;95103;-37
2022/04/03 08:03:17;;;;;;;65.38;47.58;;;12.10;50.60;;;;;;4995083;28;94514;-36
2022/04/03 08:05:42;;;;;;;64.15;47.60;;;12.10;50.70;;;;;;4992158;28;94553;-41
2022/04/03 08:08:08;;;;;;;64.88;47.63;;;12.10;50.60;;;;;;4992002;28;95836;-38
2022/04/03 08:10:34;;;;;;;65.50;47.65;;;12.10;50.80;;;;;;4993220;28;94925;-40
2022/04/03 08:13:00;;;;;;;64.20;47.67;;;12.10;50.70;;;;;;4989911;28;96028;-41
2022/04/03 08:15:27;;;;;;;64.72;47.67;;;12.20;50.60;;;;;;4994152;28;94748;-38
2022/04/03 08:17:53;;;;;;;65.05;47.85;;;12.20;50.60;;;;;;4984765;28;95892;-39
2022/04/03 08:20:18;;;;;;;64.65;47.35;;;12.20;50.60;;;;;;4990991;28;94924;-35
2022/04/03 08:22:45;;;;;;;66.38;47.92;;;12.20;50.70;;;;;;4993568;28;95089;-41
2022/04/03 08:25:12;;;;;;;66.55;47.70;;;12.20;50.50;;;;;;4997321;28;95052;-37
2022/04/03 08:27:49;;;;;;;64.28;47.55;;;12.20;50.40;;;;;;5000589;28;95025;-36
2022/04/03 08:30:27;;;;;;;65.55;47.92;;;12.20;50.60;;;;;;4999785;28;95468;-38
2022/04/03 08:32:53;;;;;;;65.32;47.67;;;12.20;50.60;;;;;;4997832;28;94869;-39
2022/04/03 08:35:20;;;;;;;65.10;47.75;;;12.30;50.50;;;;;;4997847;28;94185;-37
2022/04/03 08:37:47;;;;;;;65.22;47.75;;;12.30;50.40;;;;;;4989836;28;95134;-36
2022/04/03 08:40:13;;;;;;;64.88;47.65;;;12.30;50.50;;;;;;4994788;28;95464;-37
2022/04/03 08:42:39;;;;;;;65.97;47.85;;;12.30;50.50;;;;;;4992829;28;95975;-33
2022/04/03 08:45:11;;;;;;;65.40;47.78;;;12.30;50.60;;;;;;4993355;28;94811;-38
2022/04/03 08:47:46;;;;;;;64.20;47.40;;;12.30;50.40;;;;;;4998782;28;94922;-39
2022/04/03 08:50:13;;;;;;;64.50;47.55;;;12.30;50.50;;;;;;4993008;28;95064;-39
2022/04/03 08:52:43;;;;;;;64.65;47.80;;;12.30;50.40;;;;;;4989942;28;94952;-38
2022/04/03 08:55:09;;;;;;;65.10;47.78;;;12.30;50.40;;;;;;4995615;28;94690;-40
2022/04/03 08:57:35;;;;;;;65.55;47.88;;;12.40;50.30;;;;;;4993117;28;95039;-45
2022/04/03 09:00:01;;;;;;;64.70;47.53;;;12.40;50.20;;;;;;4989261;28;94987;-39
2022/04/03 09:02:27;;;;;;;65.22;47.83;;;12.40;50.40;;;;;;4994673;28;94941;-40
2022/04/03 09:04:53;;;;;;;66.18;47.97;;;12.40;50.20;;;;;;4998613;28;95706;-37
2022/04/03 09:07:19;;;;;;;66.13;48.08;;;12.50;50.50;;;;;;4989803;28;96082;-39
2022/04/03 09:09:54;;;;;;;66.28;47.97;;;12.50;50.30;;;;;;4994328;28;95386;-40
2022/04/03 09:12:20;;;;;;;65.88;47.80;;;12.50;50.30;;;;;;4995447;28;95000;-39
2022/04/03 09:14:52;;;;;;;66.13;47.75;;;12.50;50.20;;;;;;4996832;28;96331;-34
2022/04/03 09:17:37;;;;;;;66.28;47.85;;;12.50;50.20;;;;;;4994660;28;94740;-40
2022/04/03 09:20:08;;;;;;;67.28;47.85;;;12.50;50.20;;;;;;4996297;28;95746;-41
2022/04/03 09:22:35;;;;;;;66.10;48.00;;;12.60;50.10;;;;;;4990790;28;95052;-38
2022/04/03 09:25:05;;;;;;;65.63;47.90;;;12.60;50.10;;;;;;5005734;27;94293;-37
2022/04/03 09:27:35;;;;;;;66.95;48.10;;;12.60;50.00;;;;;;4996378;27;96603;-37
2022/04/03 09:30:07;;;;;;;66.30;47.83;;;12.50;49.90;;;;;;4996575;28;94893;-36
2022/04/03 09:32:33;;;;;;;;;;;12.60;50.10;;;;;;4989789;28;95621;-40
2022/04/03 09:34:59;;;;;;;65.82;47.72;;;12.60;50.80;;;;;;4991781;28;95571;-36
2022/04/03 09:37:26;;;;;;;66.35;47.95;;;12.60;50.10;;;;;;4989776;28;96747;-40
2022/04/03 09:39:52;;;;;;;66.65;47.97;;;12.70;50.10;;;;;;4995872;28;94880;-39
2022/04/03 09:42:18;;;;;;;66.85;47.95;;;12.70;49.90;;;;;;4990101;28;94973;-50
2022/04/03 09:44:46;;;;;;;67.65;48.00;;;12.70;49.80;;;;;;4994916;28;96543;-39
2022/04/03 09:47:20;;;;;;;67.80;48.17;;;12.70;50.00;;;;;;5000518;28;94870;-37
2022/04/03 09:49:52;;;;;;;66.70;48.03;;;12.80;50.00;;;;;;4996342;28;94014;-44
2022/04/03 09:52:41;;;;;;;67.57;48.35;;;12.80;49.80;;;;;;4984575;28;94937;-36
2022/04/03 09:55:14;;;;;;;67.45;48.13;;;12.80;49.80;;;;;;4996792;28;95398;-39
2022/04/03 09:57:41;;;;;;;67.63;48.17;;;12.80;49.80;;;;;;4987192;28;96012;-39
2022/04/03 10:00:07;;;;;;;66.55;47.75;;;12.80;49.80;;;;;;4996248;28;94923;-35
2022/04/03 10:02:33;;;;;;;66.75;47.92;;;12.80;49.70;;;;;;4992346;28;94403;-37
2022/04/03 10:04:59;;;;;;;66.68;48.05;;;12.90;49.60;;;;;;4974159;28;94811;-46
2022/04/03 10:07:25;;;;;;;68.10;48.30;;;12.90;49.60;;;;;;4990564;28;95717;-36
2022/04/03 10:09:53;;;;;;;66.82;48.00;;;12.90;49.40;;;;;;4991619;28;95755;-36
2022/04/03 10:12:21;;;;;;;66.80;47.85;;;12.90;49.40;;;;;;4992807;28;95758;-41
2022/04/03 10:14:51;;;;;;;68.25;48.25;;;12.90;49.10;;;;;;4995767;28;94146;-38
2022/04/03 10:17:19;;;;;;;67.22;48.15;;;13.00;48.90;;;;;;4996583;28;94897;-37
2022/04/03 10:19:45;;;;;;;68.03;48.13;;;12.90;48.90;;;;;;4995177;28;95853;-37
2022/04/03 10:22:22;;;;;;;68.05;48.25;;;13.00;49.30;;;;;;4993966;28;95964;-38
2022/04/03 10:24:52;;;;;;;67.68;48.38;;;13.00;49.20;;;;;;4983985;28;94904;-39
2022/04/03 10:27:23;;;;;;;69.15;48.45;;;13.10;49.10;;;;;;4994849;28;95037;-36
2022/04/03 10:29:49;;;;;;;;;;;13.10;49.00;;;;;;4989152;28;96050;-40
2022/04/03 10:32:33;;;;;;;68.45;48.35;;;13.20;48.90;;;;;;4995616;28;95011;-38
2022/04/03 10:35:03;;;;;;;69.65;48.67;;;13.20;49.00;;;;;;4992555;28;97842;-37
2022/04/03 10:37:39;;;;;;;68.13;48.28;;;13.20;48.90;;;;;;4989440;28;94713;-39
2022/04/03 10:40:18;;;;;;;68.85;48.55;;;13.20;49.10;;;;;;4989516;28;94821;-38
2022/04/03 10:42:55;;;;;;;69.28;48.72;;;13.30;49.00;;;;;;4996272;28;94935;-38
2022/04/03 10:45:32;;;;;;;68.97;48.72;;;13.30;48.90;;;;;;4995150;28;95208;-38
2022/04/03 10:48:19;;;;;;;70.07;48.67;;;13.40;48.80;;;;;;4993467;28;95922;-46
2022/04/03 10:50:57;;;;;;;70.18;48.92;;;13.40;48.70;;;;;;4990642;28;94726;-38
2022/04/03 10:53:28;;;;;;;69.30;48.65;;;13.50;48.60;;;;;;4991029;28;94889;-40
2022/04/03 10:55:57;;;;;;;70.25;48.95;;;13.50;48.60;;;;;;4994556;28;95012;-40
2022/04/03 10:58:23;;;;;;;70.28;49.03;;;13.50;48.50;;;;;;4997224;28;95287;-42
2022/04/03 11:00:50;;;;;;;70.80;48.85;;;13.50;48.60;;;;;;4995219;28;94920;-33
2022/04/03 11:03:18;;;;;;;69.70;48.55;;;13.50;48.60;;;;;;4992899;28;95098;-37
2022/04/03 11:05:46;;;;;;;69.47;48.78;;;13.50;48.70;;;;;;4991718;28;95038;-40
2022/04/03 11:08:12;;;;;;;69.97;48.85;;;13.50;48.60;;;;;;4994830;28;95827;-40
2022/04/03 11:11:07;;;;;;;70.07;49.03;;;13.60;48.50;;;;;;4987883;28;94915;-42
2022/04/03 11:13:33;;;;;;;71.05;49.05;;;13.70;48.40;;;;;;4993548;28;95902;-38
2022/04/03 11:16:09;;;;;;;71.18;48.95;;;13.70;48.20;;;;;;4993887;28;94869;-36
2022/04/03 11:18:39;;;;;;;71.00;48.95;;;13.70;48.30;;;;;;4996774;28;94639;-38
2022/04/03 11:21:10;;;;;;;70.10;48.72;;;13.70;48.40;;;;;;4993602;28;95371;-38
2022/04/03 11:23:39;;;;;;;70.53;49.03;;;13.80;48.30;;;;;;4992252;28;94692;-37
2022/04/03 11:26:05;;;;;;;70.43;48.95;;;13.70;48.20;;;;;;4995782;28;94836;-37
2022/04/03 11:28:32;;;;;;;70.78;49.03;;;13.80;48.20;;;;;;4996230;28;95682;-38
2022/04/03 11:30:59;;;;;;;70.75;49.03;;;13.80;48.10;;;;;;4985542;28;95958;-38
2022/04/03 11:33:26;;;;;;;71.53;49.00;;;13.80;48.20;;;;;;4990572;28;94799;-40
2022/04/03 11:35:53;;;;;;;70.63;49.03;;;13.90;48.20;;;;;;4996891;28;94972;-36
2022/04/03 11:38:20;;;;;;;69.78;48.83;;;13.80;48.20;;;;;;4994000;28;96688;-38
2022/04/03 11:40:47;;;;;;;70.07;48.78;;;13.80;48.30;;;;;;4994379;28;96647;-38
2022/04/03 11:43:21;;;;;;;69.82;49.03;;;13.80;48.30;;;;;;4988081;28;96170;-36
2022/04/03 11:45:58;;;;;;;70.22;48.72;;;13.80;48.40;;;;;;4995473;28;95634;-40
2022/04/03 11:48:27;;;;;;;69.68;48.83;;;13.80;48.30;;;;;;4988749;28;95829;-36
2022/04/03 11:51:11;;;;;;;69.90;48.92;;;13.80;48.40;;;;;;4991703;28;94579;-36
2022/04/03 11:53:39;;;;;;;69.93;48.83;;;13.80;48.40;;;;;;4994762;28;94567;-49
2022/04/03 11:56:12;;;;;;;71.30;49.15;;;13.90;48.20;;;;;;4991764;28;94398;-36
2022/04/03 11:58:40;;;;;;;71.65;49.30;;;13.90;48.10;;;;;;4996631;28;96726;-39
2022/04/03 12:01:06;;;;;;;71.13;49.33;;;14.00;48.00;;;;;;5000113;28;94776;-37
2022/04/03 12:03:35;;;;;;;71.35;49.28;;;14.10;48.00;;;;;;4995460;28;95899;-38
2022/04/03 12:06:17;;;;;;;71.55;49.30;;;14.10;47.90;;;;;;4999322;28;95134;-40
2022/04/03 12:08:46;;;;;;;71.50;49.35;;;14.10;48.00;;;;;;4996617;28;95191;-43
2022/04/03 12:11:30;;;;;;;71.30;49.20;;;14.20;48.00;;;;;;4993563;28;94940;-38
2022/04/03 12:13:57;;;;;;;70.95;49.15;;;14.10;47.90;;;;;;5000803;28;95223;-41
2022/04/03 12:16:24;;;;;;;71.40;49.22;;;14.10;47.90;;;;;;4999763;27;94666;-41
2022/04/03 12:19:04;;;;;;;71.18;49.15;;;14.10;48.10;;;;;;5000315;27;94966;-38
2022/04/03 12:21:57;;;;;;;71.65;49.28;;;14.10;48.20;;;;;;5000081;28;94419;-39
2022/04/03 12:24:24;;;;;;;70.07;48.83;;;14.10;48.10;;;;;;4994353;28;94977;-38
2022/04/03 12:26:57;;;;;;;70.97;49.03;;;14.20;48.10;;;;;;4997750;28;97025;-34
2022/04/03 12:29:26;;;;;;;71.15;49.33;;;14.20;47.90;;;;;;4990373;28;96528;-40